Time;durP1;ratioP1;P1;durP2;ratioP2;P2;SDS_P1;SDS_P2;PMS_P1;PMS_P2;Temp;Humidity;BMP_temperature;BMP_pressure;BME280_temperature;BME280_humidity;BME280_pressure;Samples;Min_cycle;Max_cycle;Signal;HPM_P1;HPM_P2
2022/02/21 00:01:35;;;;;;;4.07;2.13;;;7.40;99.90;;;;;;5050586;28;20320;-72
2022/02/21 00:04:02;;;;;;;2.23;1.67;;;7.40;99.90;;;;;;5049797;28;20206;-72
2022/02/21 00:06:29;;;;;;;2.10;1.87;;;7.50;99.90;;;;;;5048148;28;20228;-73
2022/02/21 00:08:57;;;;;;;4.47;2.10;;;7.50;99.90;;;;;;5055797;28;20201;-72
2022/02/21 00:11:24;;;;;;;3.63;2.17;;;7.50;99.90;;;;;;5053758;28;20298;-73
2022/02/21 00:13:51;;;;;;;2.90;1.93;;;7.50;99.90;;;;;;5054324;28;20707;-72
2022/02/21 00:16:18;;;;;;;3.87;1.90;;;7.50;99.90;;;;;;5051448;28;20236;-72
2022/02/21 00:18:44;;;;;;;3.73;2.23;;;7.50;99.90;;;;;;5054788;28;20218;-73
2022/02/21 00:21:11;;;;;;;3.37;1.90;;;7.50;99.90;;;;;;5060803;28;20240;-72
2022/02/21 00:23:38;;;;;;;2.53;1.80;;;7.60;99.90;;;;;;5050339;28;20569;-73
2022/02/21 00:26:06;;;;;;;3.60;2.40;;;7.60;99.90;;;;;;5054372;28;20214;-73
2022/02/21 00:28:33;;;;;;;3.43;1.87;;;7.60;99.90;;;;;;5056022;28;20280;-72
2022/02/21 00:31:00;;;;;;;1.80;1.70;;;7.60;99.90;;;;;;5056300;28;20726;-72
2022/02/21 00:33:27;;;;;;;3.53;2.00;;;7.60;99.90;;;;;;5053805;28;20287;-72
2022/02/21 00:35:54;;;;;;;2.00;1.53;;;7.60;99.90;;;;;;5052780;28;20649;-72
2022/02/21 00:38:22;;;;;;;3.60;1.97;;;7.70;99.90;;;;;;5054192;28;20672;-73
2022/02/21 00:40:50;;;;;;;3.97;1.80;;;7.70;99.90;;;;;;5053270;28;20242;-72
2022/02/21 00:43:19;;;;;;;2.97;1.83;;;7.70;99.90;;;;;;5052468;28;20267;-72
2022/02/21 00:45:46;;;;;;;2.60;1.60;;;7.80;99.90;;;;;;5053244;28;20289;-74
2022/02/21 00:48:12;;;;;;;4.30;2.03;;;7.80;99.90;;;;;;5047442;28;20216;-72
2022/02/21 00:50:39;;;;;;;2.33;1.80;;;7.80;99.90;;;;;;5053622;28;20206;-72
2022/02/21 00:53:06;;;;;;;3.17;1.60;;;7.80;99.90;;;;;;5054221;28;20229;-72
2022/02/21 00:55:34;;;;;;;4.77;1.80;;;7.90;99.90;;;;;;5050127;28;20206;-72
2022/02/21 00:58:01;;;;;;;2.80;1.60;;;7.90;99.90;;;;;;5044185;28;20249;-72
2022/02/21 01:00:30;;;;;;;3.57;1.63;;;7.90;99.90;;;;;;5053511;28;20217;-73
2022/02/21 01:02:57;;;;;;;2.73;1.53;;;7.90;99.90;;;;;;5049623;28;20296;-72
2022/02/21 01:05:24;;;;;;;3.27;1.33;;;7.90;99.90;;;;;;5044912;28;20226;-72
2022/02/21 01:07:51;;;;;;;2.20;1.43;;;8.00;99.90;;;;;;5054224;28;20288;-72
2022/02/21 01:10:18;;;;;;;2.87;1.70;;;8.00;99.90;;;;;;5053177;28;20312;-73
2022/02/21 01:12:46;;;;;;;2.80;1.70;;;8.00;99.90;;;;;;5053191;28;20289;-73
2022/02/21 01:15:14;;;;;;;1.50;1.27;;;8.00;99.90;;;;;;5051388;28;20229;-72
2022/02/21 01:17:43;;;;;;;2.50;1.60;;;8.00;99.90;;;;;;5045907;28;20213;-72
2022/02/21 01:20:12;;;;;;;2.20;1.83;;;8.00;99.90;;;;;;5063854;28;20206;-71
2022/02/21 01:22:39;;;;;;;2.00;1.33;;;8.10;99.90;;;;;;5051416;28;20297;-71
2022/02/21 01:25:08;;;;;;;2.27;1.43;;;8.10;99.90;;;;;;5057063;28;20220;-72
2022/02/21 01:27:35;;;;;;;2.53;1.33;;;8.10;99.90;;;;;;5050635;28;20294;-72
2022/02/21 01:30:04;;;;;;;3.10;1.60;;;8.10;99.90;;;;;;5059014;28;20283;-72
2022/02/21 01:32:31;;;;;;;3.13;1.50;;;8.20;99.90;;;;;;5044887;28;20858;-71
2022/02/21 01:34:59;;;;;;;2.30;1.53;;;8.20;99.90;;;;;;5050792;28;20244;-73
2022/02/21 01:37:26;;;;;;;2.40;1.47;;;8.20;99.90;;;;;;5050832;28;20289;-73
2022/02/21 01:39:53;;;;;;;2.27;1.57;;;8.20;99.90;;;;;;5051722;28;20241;-72
2022/02/21 01:42:20;;;;;;;2.40;1.73;;;8.20;99.90;;;;;;5049908;28;20237;-73
2022/02/21 01:44:50;;;;;;;2.03;1.60;;;8.20;99.90;;;;;;5046015;28;20275;-72
2022/02/21 01:47:18;;;;;;;2.07;1.60;;;8.20;99.90;;;;;;5050867;28;20249;-73
2022/02/21 01:49:46;;;;;;;1.93;1.27;;;8.20;99.90;;;;;;5047064;28;20202;-72
2022/02/21 01:52:15;;;;;;;3.40;1.43;;;8.20;99.90;;;;;;5060680;28;20309;-73
2022/02/21 01:54:42;;;;;;;3.97;1.40;;;8.20;99.90;;;;;;5052390;28;20737;-72
2022/02/21 01:57:09;;;;;;;2.60;1.40;;;8.20;99.90;;;;;;5051752;28;20308;-72
2022/02/21 01:59:38;;;;;;;2.37;1.70;;;8.10;99.90;;;;;;5051813;28;20228;-73
2022/02/21 02:02:06;;;;;;;2.43;1.60;;;8.10;99.90;;;;;;5052114;28;20582;-72
2022/02/21 02:04:33;;;;;;;1.50;1.40;;;8.10;99.90;;;;;;5051525;28;20654;-72
2022/02/21 02:07:02;;;;;;;2.67;1.47;;;8.10;99.90;;;;;;5049554;28;20209;-73
2022/02/21 02:09:30;;;;;;;2.67;1.57;;;8.10;99.90;;;;;;5050534;28;20629;-72
2022/02/21 02:11:57;;;;;;;1.67;1.40;;;8.10;99.90;;;;;;5051737;28;20219;-73
2022/02/21 02:14:32;;;;;;;2.50;1.67;;;8.00;99.90;;;;;;5061658;28;20308;-73
2022/02/21 02:17:02;;;;;;;3.23;1.67;;;8.00;99.90;;;;;;5047121;28;20205;-72
2022/02/21 02:19:30;;;;;;;3.40;1.40;;;8.00;99.90;;;;;;5050810;28;20255;-73
2022/02/21 02:21:58;;;;;;;2.50;1.80;;;8.00;99.90;;;;;;5052943;28;20329;-73
2022/02/21 02:24:26;;;;;;;2.20;1.23;;;8.00;99.90;;;;;;5051528;28;20264;-73
2022/02/21 02:26:54;;;;;;;2.40;1.30;;;8.00;99.90;;;;;;5053354;28;20202;-74
2022/02/21 02:29:21;;;;;;;2.70;1.27;;;7.90;99.90;;;;;;5044205;28;20210;-73
2022/02/21 02:31:49;;;;;;;2.10;1.10;;;7.90;99.90;;;;;;5051740;28;20210;-73
2022/02/21 02:34:16;;;;;;;2.77;1.77;;;7.90;99.90;;;;;;5053630;28;20205;-73
2022/02/21 02:36:44;;;;;;;1.60;1.30;;;7.90;99.90;;;;;;5051165;28;20308;-73
2022/02/21 02:39:13;;;;;;;1.67;1.53;;;7.90;99.90;;;;;;5051435;28;20241;-73
2022/02/21 02:41:43;;;;;;;1.50;1.40;;;7.80;99.90;;;;;;5051368;28;20198;-73
2022/02/21 02:44:10;;;;;;;2.50;1.50;;;7.80;99.90;;;;;;5065404;28;20202;-72
2022/02/21 02:46:36;;;;;;;2.10;1.57;;;7.80;99.90;;;;;;5050579;28;20301;-73
2022/02/21 02:49:03;;;;;;;1.77;1.20;;;7.80;99.90;;;;;;5049934;28;20202;-73
2022/02/21 02:51:30;;;;;;;3.30;1.53;;;7.70;99.90;;;;;;5042468;28;20211;-72
2022/02/21 02:53:57;;;;;;;3.00;1.47;;;7.70;99.90;;;;;;5049622;28;20240;-73
2022/02/21 02:56:24;;;;;;;1.63;1.10;;;7.70;99.90;;;;;;5049260;28;20213;-73
2022/02/21 02:58:52;;;;;;;2.20;1.43;;;7.70;99.90;;;;;;5051832;28;20654;-73
2022/02/21 03:01:19;;;;;;;2.17;1.40;;;7.70;99.90;;;;;;5050552;28;20726;-73
2022/02/21 03:03:46;;;;;;;2.17;1.40;;;7.70;99.90;;;;;;5055551;28;20212;-73
2022/02/21 03:06:13;;;;;;;1.83;1.27;;;7.70;99.90;;;;;;5054872;28;20217;-74
2022/02/21 03:08:40;;;;;;;1.57;1.43;;;7.70;99.90;;;;;;5056256;28;20226;-72
2022/02/21 03:11:07;;;;;;;2.57;1.70;;;7.70;99.90;;;;;;5054859;28;20210;-72
2022/02/21 03:13:33;;;;;;;3.17;1.17;;;7.70;99.90;;;;;;5056246;28;20519;-73
2022/02/21 03:16:02;;;;;;;1.57;1.30;;;7.70;99.90;;;;;;5052933;28;20233;-73
2022/02/21 03:18:28;;;;;;;2.43;1.40;;;7.70;99.90;;;;;;5058817;28;20263;-73
2022/02/21 03:20:55;;;;;;;1.90;1.50;;;7.60;99.90;;;;;;5054174;28;20659;-72
2022/02/21 03:23:23;;;;;;;1.90;1.40;;;7.60;99.90;;;;;;5054719;28;20206;-74
2022/02/21 03:25:50;;;;;;;3.17;1.70;;;7.60;99.90;;;;;;5063642;28;20212;-72
2022/02/21 03:28:17;;;;;;;2.40;1.30;;;7.60;99.90;;;;;;5055381;28;20644;-72
2022/02/21 03:30:44;;;;;;;1.27;1.17;;;7.60;99.90;;;;;;5061650;28;20273;-73
2022/02/21 03:33:13;;;;;;;2.73;1.57;;;7.60;99.90;;;;;;5054646;28;20670;-72
2022/02/21 03:35:40;;;;;;;1.27;1.10;;;7.60;99.90;;;;;;5055772;28;20328;-73
2022/02/21 03:38:07;;;;;;;1.40;0.93;;;7.60;99.90;;;;;;5054680;28;20212;-73
2022/02/21 03:40:33;;;;;;;1.43;1.33;;;7.50;99.90;;;;;;5054329;28;20601;-73
2022/02/21 03:43:00;;;;;;;1.13;1.03;;;7.60;99.90;;;;;;5063228;28;20702;-73
2022/02/21 03:45:27;;;;;;;1.63;1.10;;;7.60;99.90;;;;;;5052102;28;20209;-73
2022/02/21 03:47:54;;;;;;;1.27;1.10;;;7.60;99.90;;;;;;5044565;28;20639;-72
2022/02/21 03:50:23;;;;;;;1.53;0.90;;;7.50;99.90;;;;;;5052831;28;20212;-73
2022/02/21 03:52:50;;;;;;;2.23;1.27;;;7.60;99.90;;;;;;5062373;28;20210;-74
2022/02/21 03:55:17;;;;;;;2.80;1.07;;;7.50;99.90;;;;;;5054280;28;20312;-74
2022/02/21 03:57:44;;;;;;;2.47;1.57;;;7.50;99.90;;;;;;5051800;28;20206;-73
2022/02/21 04:00:14;;;;;;;1.57;1.37;;;7.50;99.90;;;;;;5054079;28;20225;-72
2022/02/21 04:02:41;;;;;;;1.90;1.10;;;7.50;99.90;;;;;;5053161;28;20305;-72
2022/02/21 04:05:09;;;;;;;1.93;1.27;;;7.50;99.90;;;;;;5048252;28;20212;-73
2022/02/21 04:07:42;;;;;;;2.07;1.30;;;7.50;99.90;;;;;;5048843;28;20206;-72
2022/02/21 04:10:09;;;;;;;1.93;1.30;;;7.50;99.90;;;;;;5054534;28;20658;-72
2022/02/21 04:12:36;;;;;;;1.50;1.00;;;7.50;99.90;;;;;;5057161;28;20288;-72
2022/02/21 04:15:04;;;;;;;1.43;1.10;;;7.50;99.90;;;;;;5055258;28;20221;-73
2022/02/21 04:17:40;;;;;;;1.57;1.10;;;7.50;99.90;;;;;;5055650;28;20221;-72
2022/02/21 04:20:09;;;;;;;1.20;1.10;;;7.50;99.90;;;;;;5046306;28;20259;-72
2022/02/21 04:22:35;;;;;;;2.40;1.40;;;7.50;99.90;;;;;;5055548;28;20205;-73
2022/02/21 04:25:04;;;;;;;1.97;1.37;;;7.40;99.90;;;;;;5054096;28;20588;-72
2022/02/21 04:27:38;;;;;;;2.20;1.00;;;7.50;99.90;;;;;;5053252;28;20228;-72
2022/02/21 04:30:06;;;;;;;2.00;1.10;;;7.40;99.90;;;;;;5054299;28;20237;-72
2022/02/21 04:32:35;;;;;;;1.30;1.20;;;7.40;99.90;;;;;;5050425;28;20216;-73
2022/02/21 04:35:02;;;;;;;1.23;1.03;;;7.50;99.90;;;;;;5053841;28;20297;-73
2022/02/21 04:37:29;;;;;;;2.10;1.17;;;7.50;99.90;;;;;;5054151;28;20198;-73
2022/02/21 04:39:56;;;;;;;2.83;1.27;;;7.50;99.90;;;;;;5052761;28;20261;-73
2022/02/21 04:42:24;;;;;;;1.20;1.10;;;7.50;99.90;;;;;;5052549;28;20221;-72
2022/02/21 04:44:51;;;;;;;1.83;1.23;;;7.40;99.90;;;;;;5053675;28;20233;-73
2022/02/21 04:47:18;;;;;;;1.60;1.20;;;7.40;99.90;;;;;;5053622;28;20289;-72
2022/02/21 04:49:45;;;;;;;1.10;1.10;;;7.40;99.90;;;;;;5051438;28;20209;-73
2022/02/21 04:52:12;;;;;;;2.77;1.27;;;7.40;99.90;;;;;;5046471;28;20595;-72
2022/02/21 04:54:39;;;;;;;1.73;1.00;;;7.40;99.90;;;;;;5051112;28;20297;-74
2022/02/21 04:57:06;;;;;;;2.43;1.57;;;7.40;99.90;;;;;;5061495;28;20205;-72
2022/02/21 04:59:35;;;;;;;2.47;1.07;;;7.40;99.90;;;;;;5051424;28;20316;-74
2022/02/21 05:02:01;;;;;;;2.60;1.70;;;7.50;99.90;;;;;;5047382;28;20300;-72
2022/02/21 05:04:29;;;;;;;1.30;1.20;;;7.40;99.90;;;;;;5052483;28;20206;-72
2022/02/21 05:06:55;;;;;;;3.17;1.13;;;7.50;99.90;;;;;;5052897;28;20297;-72
2022/02/21 05:09:22;;;;;;;2.57;1.30;;;7.40;99.90;;;;;;5053118;28;20353;-72
2022/02/21 05:11:49;;;;;;;2.37;1.40;;;7.50;99.90;;;;;;5054401;28;20202;-72
2022/02/21 05:14:16;;;;;;;2.00;1.13;;;7.50;99.90;;;;;;5061044;28;20205;-72
2022/02/21 05:16:45;;;;;;;2.00;1.00;;;7.40;99.90;;;;;;5060021;28;20233;-73
2022/02/21 05:19:12;;;;;;;1.97;1.00;;;7.50;99.90;;;;;;5060744;28;20236;-73
2022/02/21 05:21:39;;;;;;;2.17;1.20;;;7.40;99.90;;;;;;5059221;28;20560;-73
2022/02/21 05:24:06;;;;;;;1.70;1.07;;;7.40;99.90;;;;;;5052760;28;20217;-73
2022/02/21 05:26:33;;;;;;;2.00;1.20;;;7.40;99.90;;;;;;5052227;28;20652;-72
2022/02/21 05:29:00;;;;;;;3.17;1.07;;;7.40;99.90;;;;;;5056403;28;20299;-73
2022/02/21 05:31:27;;;;;;;2.90;1.40;;;7.40;99.90;;;;;;5051319;28;20230;-72
2022/02/21 05:33:55;;;;;;;1.40;1.20;;;7.40;99.90;;;;;;5051992;28;20696;-72
2022/02/21 05:36:22;;;;;;;1.50;1.40;;;7.40;99.90;;;;;;5052522;28;20210;-72
2022/02/21 05:38:49;;;;;;;2.70;1.80;;;7.40;99.90;;;;;;5045390;28;20582;-73
2022/02/21 05:41:16;;;;;;;1.63;1.40;;;7.50;99.90;;;;;;5047467;28;20206;-72
2022/02/21 05:43:43;;;;;;;1.63;1.13;;;7.50;99.90;;;;;;5052955;28;20482;-72
2022/02/21 05:46:09;;;;;;;1.70;1.10;;;7.50;99.90;;;;;;5050687;28;20206;-73
2022/02/21 05:48:36;;;;;;;1.33;1.07;;;7.50;99.90;;;;;;5050035;28;20205;-73
2022/02/21 05:51:04;;;;;;;1.67;1.37;;;7.50;99.90;;;;;;5049012;28;20209;-73
2022/02/21 05:53:31;;;;;;;2.10;1.07;;;7.50;99.90;;;;;;5064603;28;20713;-72
2022/02/21 05:55:58;;;;;;;1.87;0.90;;;7.50;99.90;;;;;;5050608;28;20244;-72
2022/02/21 05:58:25;;;;;;;1.27;1.17;;;7.50;99.90;;;;;;5051074;28;20649;-72
2022/02/21 06:00:55;;;;;;;1.63;1.20;;;7.50;99.90;;;;;;5048645;28;20868;-73
2022/02/21 06:03:21;;;;;;;1.73;1.20;;;7.50;99.90;;;;;;5052152;28;21525;-72
2022/02/21 06:05:48;;;;;;;3.50;1.23;;;7.60;99.90;;;;;;5046819;28;20302;-73
2022/02/21 06:08:16;;;;;;;1.17;0.93;;;7.50;99.90;;;;;;5050721;28;20220;-72
2022/02/21 06:10:43;;;;;;;1.57;1.00;;;7.60;99.90;;;;;;5049779;28;20290;-72
2022/02/21 06:13:10;;;;;;;1.47;0.93;;;7.60;99.90;;;;;;5054959;28;20208;-73
2022/02/21 06:15:37;;;;;;;1.63;1.00;;;7.60;99.90;;;;;;5053948;28;20609;-72
2022/02/21 06:18:04;;;;;;;1.40;1.07;;;7.60;99.90;;;;;;5052819;28;20228;-72
2022/02/21 06:20:31;;;;;;;2.20;1.20;;;7.60;99.90;;;;;;5051246;28;20229;-72
2022/02/21 06:22:57;;;;;;;1.27;0.90;;;7.60;99.90;;;;;;5052627;28;20206;-72
2022/02/21 06:25:26;;;;;;;2.83;1.33;;;7.60;99.90;;;;;;5051746;28;20214;-73
2022/02/21 06:27:52;;;;;;;4.03;1.20;;;7.60;99.90;;;;;;5048736;28;20555;-73
2022/02/21 06:30:20;;;;;;;3.13;1.33;;;7.60;99.90;;;;;;5050689;28;20677;-72
2022/02/21 06:32:46;;;;;;;2.80;1.53;;;7.60;99.90;;;;;;5050659;28;20210;-73
2022/02/21 06:35:14;;;;;;;0.87;0.77;;;7.60;99.90;;;;;;5049721;28;20645;-72
2022/02/21 06:37:43;;;;;;;2.53;1.30;;;7.60;99.90;;;;;;5051253;28;20743;-74
2022/02/21 06:40:11;;;;;;;2.53;1.30;;;7.70;99.90;;;;;;5055873;28;20241;-73
2022/02/21 06:42:40;;;;;;;1.77;1.00;;;7.70;99.90;;;;;;5050963;28;20278;-71
2022/02/21 06:45:08;;;;;;;0.93;0.80;;;7.70;99.90;;;;;;5051438;28;20277;-66
2022/02/21 06:47:35;;;;;;;2.70;0.97;;;7.70;99.90;;;;;;5046787;28;20681;-66
2022/02/21 06:50:04;;;;;;;1.57;1.07;;;7.70;99.90;;;;;;5048766;28;20564;-67
2022/02/21 06:52:31;;;;;;;1.47;0.90;;;7.70;99.90;;;;;;5047035;28;20237;-68
2022/02/21 06:54:58;;;;;;;2.20;1.20;;;7.70;99.90;;;;;;5043728;28;20202;-66
2022/02/21 06:57:25;;;;;;;1.50;1.07;;;7.70;99.90;;;;;;5048854;28;20201;-67
2022/02/21 06:59:53;;;;;;;2.07;0.80;;;7.70;99.90;;;;;;5050819;28;20312;-66
2022/02/21 07:02:20;;;;;;;2.43;0.97;;;7.70;99.90;;;;;;5051985;28;20210;-67
2022/02/21 07:04:47;;;;;;;2.33;1.10;;;7.80;99.90;;;;;;5047163;28;20563;-67
2022/02/21 07:07:14;;;;;;;2.70;0.97;;;7.80;99.90;;;;;;5048472;28;20296;-67
2022/02/21 07:09:41;;;;;;;1.20;1.00;;;7.80;99.90;;;;;;5045491;28;20200;-66
2022/02/21 07:12:09;;;;;;;1.40;0.80;;;7.80;99.90;;;;;;5044350;28;20210;-66
2022/02/21 07:14:36;;;;;;;2.83;1.10;;;7.80;99.90;;;;;;5039638;28;20220;-66
2022/02/21 07:17:04;;;;;;;1.57;1.03;;;7.80;99.90;;;;;;5042700;28;20206;-66
2022/02/21 07:19:31;;;;;;;1.97;0.90;;;7.80;99.90;;;;;;5042471;28;20297;-67
2022/02/21 07:21:59;;;;;;;1.30;0.80;;;7.80;99.90;;;;;;5043278;28;21007;-78
2022/02/21 07:24:26;;;;;;;0.80;0.80;;;7.80;99.90;;;;;;5054351;28;20252;-79
2022/02/21 07:26:53;;;;;;;1.33;1.00;;;7.90;99.90;;;;;;5048851;28;20674;-67
2022/02/21 07:29:22;;;;;;;1.40;1.07;;;7.90;99.90;;;;;;5052144;28;20209;-74
2022/02/21 07:31:49;;;;;;;1.70;1.07;;;7.90;99.90;;;;;;5038781;28;20210;-73
2022/02/21 07:34:17;;;;;;;1.77;1.00;;;7.90;99.90;;;;;;5043960;28;20237;-74
2022/02/21 07:36:44;;;;;;;2.10;1.00;;;8.00;99.90;;;;;;5047346;28;20206;-75
2022/02/21 07:39:11;;;;;;;1.50;1.00;;;8.10;99.90;;;;;;5057558;28;20312;-68
2022/02/21 07:41:39;;;;;;;2.33;1.00;;;8.10;99.90;;;;;;5052475;28;20241;-68
2022/02/21 07:44:06;;;;;;;1.27;0.90;;;8.10;99.90;;;;;;5050876;28;20202;-67
2022/02/21 07:46:33;;;;;;;1.20;0.90;;;8.10;99.90;;;;;;5051993;28;20293;-68
2022/02/21 07:49:00;;;;;;;1.90;0.97;;;8.10;99.90;;;;;;5055799;28;20212;-67
2022/02/21 07:51:29;;;;;;;1.77;1.27;;;8.10;99.90;;;;;;5056309;28;20294;-68
2022/02/21 07:53:56;;;;;;;1.93;1.40;;;8.20;99.90;;;;;;5055706;28;20681;-68
2022/02/21 07:56:23;;;;;;;1.97;1.20;;;8.20;99.90;;;;;;5056237;28;20214;-68
2022/02/21 07:58:53;;;;;;;1.10;1.07;;;8.30;99.90;;;;;;5055905;28;20260;-69
2022/02/21 08:01:20;;;;;;;1.60;1.20;;;8.30;99.90;;;;;;5055414;28;20237;-68
2022/02/21 08:03:47;;;;;;;1.20;1.10;;;8.30;99.90;;;;;;5055031;28;20210;-68
2022/02/21 08:06:14;;;;;;;1.73;1.10;;;8.40;99.90;;;;;;5068129;28;20214;-67
2022/02/21 08:08:42;;;;;;;1.27;1.10;;;8.40;99.90;;;;;;5061677;28;20186;-67
2022/02/21 08:11:09;;;;;;;1.73;1.17;;;8.40;99.90;;;;;;5063723;28;20288;-67
2022/02/21 08:13:35;;;;;;;2.43;1.47;;;8.50;99.90;;;;;;5061002;28;20214;-67
2022/02/21 08:16:02;;;;;;;1.80;1.13;;;8.40;99.90;;;;;;5054390;28;20242;-68
2022/02/21 08:18:29;;;;;;;3.17;1.60;;;8.50;99.90;;;;;;5060579;28;20232;-76
2022/02/21 08:20:56;;;;;;;1.10;1.00;;;8.50;99.90;;;;;;5057264;28;20436;-70
2022/02/21 08:23:23;;;;;;;1.87;1.00;;;8.50;99.90;;;;;;5063031;28;20255;-74
2022/02/21 08:25:51;;;;;;;1.20;0.90;;;8.50;99.90;;;;;;5068322;28;20606;-76
2022/02/21 08:28:18;;;;;;;2.40;1.20;;;8.50;99.90;;;;;;5065408;28;20304;-76
2022/02/21 08:30:45;;;;;;;1.63;1.00;;;8.60;99.90;;;;;;5064270;28;20687;-71
2022/02/21 08:33:12;;;;;;;1.43;0.93;;;8.60;99.90;;;;;;5051367;28;20206;-71
2022/02/21 08:35:40;;;;;;;1.80;1.07;;;8.70;99.90;;;;;;5053961;28;20262;-71
2022/02/21 08:38:06;;;;;;;1.93;1.00;;;8.70;99.90;;;;;;5049125;28;20782;-72
2022/02/21 08:40:33;;;;;;;2.90;1.30;;;8.80;99.90;;;;;;5058092;28;20451;-71
2022/02/21 08:43:03;;;;;;;2.53;1.40;;;8.80;99.90;;;;;;5059364;28;20275;-71
2022/02/21 08:45:30;;;;;;;2.90;1.45;;;8.90;99.90;;;;;;5056181;28;20529;-71
2022/02/21 08:47:56;;;;;;;1.80;1.20;;;8.90;99.90;;;;;;5068129;28;20680;-71
2022/02/21 08:50:23;;;;;;;2.83;1.67;;;8.90;99.90;;;;;;5062304;28;20205;-71
2022/02/21 08:52:50;;;;;;;2.27;1.37;;;9.00;99.90;;;;;;5054281;28;20659;-71
2022/02/21 08:55:18;;;;;;;6.63;1.40;;;9.00;99.90;;;;;;5065287;28;20213;-70
2022/02/21 08:57:46;;;;;;;2.10;1.30;;;9.10;99.90;;;;;;5055247;28;20448;-75
2022/02/21 09:00:20;;;;;;;2.83;1.10;;;9.10;99.90;;;;;;5067071;28;20225;-76
2022/02/21 09:02:48;;;;;;;1.87;1.07;;;9.20;99.90;;;;;;5056473;28;20197;-75
2022/02/21 09:05:16;;;;;;;1.10;1.00;;;9.20;99.90;;;;;;5060122;28;20214;-73
2022/02/21 09:07:43;;;;;;;3.13;1.50;;;9.30;99.90;;;;;;5049717;28;20208;-73
2022/02/21 09:10:10;;;;;;;2.57;1.07;;;9.30;99.90;;;;;;5056668;28;20218;-73
2022/02/21 09:12:37;;;;;;;3.07;1.30;;;9.40;99.90;;;;;;5061879;28;20272;-75
2022/02/21 09:15:06;;;;;;;1.53;1.03;;;9.40;99.90;;;;;;5062911;28;20210;-77
2022/02/21 09:17:35;;;;;;;1.57;1.10;;;9.50;99.90;;;;;;5070130;28;20297;-74
2022/02/21 09:20:02;;;;;;;1.50;1.13;;;9.60;99.90;;;;;;5056161;28;20210;-71
2022/02/21 09:22:28;;;;;;;3.73;0.97;;;9.70;99.90;;;;;;5058536;28;20671;-77
2022/02/21 09:24:55;;;;;;;3.03;2.20;;;9.70;99.90;;;;;;5063999;28;20205;-73
2022/02/21 09:27:22;;;;;;;2.63;1.17;;;9.80;99.90;;;;;;5062107;28;20722;-72
2022/02/21 09:29:49;;;;;;;3.03;1.53;;;9.80;99.90;;;;;;5059504;28;20660;-73
2022/02/21 09:32:16;;;;;;;2.80;1.30;;;9.90;99.90;;;;;;5055723;28;20194;-74
2022/02/21 09:34:45;;;;;;;2.83;1.30;;;9.80;99.90;;;;;;5062763;28;20562;-73
2022/02/21 09:37:12;;;;;;;2.40;1.30;;;9.80;99.90;;;;;;5061309;28;20297;-74
2022/02/21 09:39:39;;;;;;;3.33;1.60;;;9.80;99.90;;;;;;5062262;28;20320;-75
2022/02/21 09:42:07;;;;;;;2.93;1.57;;;9.80;99.90;;;;;;5061758;28;20575;-73
2022/02/21 09:44:34;;;;;;;1.73;1.17;;;9.80;99.90;;;;;;5051108;28;20295;-74
2022/02/21 09:47:03;;;;;;;1.63;1.00;;;9.80;99.90;;;;;;5052178;28;20218;-75
2022/02/21 09:49:30;;;;;;;1.47;1.13;;;9.90;99.90;;;;;;5057508;28;20201;-74
2022/02/21 09:51:59;;;;;;;2.97;1.27;;;9.90;99.90;;;;;;5059965;28;20639;-70
2022/02/21 09:54:26;;;;;;;1.37;1.27;;;9.90;99.90;;;;;;5047767;28;20206;-73
2022/02/21 09:56:55;;;;;;;2.33;1.13;;;9.90;99.90;;;;;;5070821;28;20634;-73
2022/02/21 09:59:22;;;;;;;1.50;1.23;;;9.90;99.90;;;;;;5055512;28;20296;-71
2022/02/21 10:01:50;;;;;;;2.67;1.20;;;10.00;99.90;;;;;;5060570;28;20260;-76
2022/02/21 10:04:24;;;;;;;2.73;1.50;;;10.00;99.90;;;;;;5067998;28;20301;-72
2022/02/21 10:06:51;;;;;;;1.53;1.20;;;10.00;99.90;;;;;;5057276;28;20209;-77
2022/02/21 10:09:20;;;;;;;3.03;1.50;;;10.10;99.90;;;;;;5057279;28;20209;-75
2022/02/21 10:11:48;;;;;;;1.67;1.30;;;10.10;99.90;;;;;;5052214;28;20217;-75
2022/02/21 10:14:18;;;;;;;2.77;1.70;;;10.20;99.90;;;;;;5058872;28;20221;-74
2022/02/21 10:16:47;;;;;;;3.03;1.30;;;10.20;99.90;;;;;;5053925;28;20236;-76
2022/02/21 10:19:20;;;;;;;2.33;1.50;;;10.20;99.90;;;;;;5058796;28;20209;-74
2022/02/21 10:21:49;;;;;;;2.20;1.60;;;10.30;99.90;;;;;;5054670;28;20229;-73
2022/02/21 10:24:16;;;;;;;1.40;1.30;;;10.30;99.90;;;;;;5058329;28;20256;-76
2022/02/21 10:26:44;;;;;;;8.90;1.57;;;10.40;99.90;;;;;;5062596;28;20212;-76
2022/02/21 10:29:12;;;;;;;1.63;1.13;;;10.30;99.90;;;;;;5060365;28;20296;-75
2022/02/21 10:31:39;;;;;;;2.77;1.50;;;10.20;99.90;;;;;;5053063;28;20214;-74
2022/02/21 10:34:08;;;;;;;2.63;1.30;;;10.20;99.90;;;;;;5052408;28;20241;-75
2022/02/21 10:36:37;;;;;;;3.17;1.60;;;10.20;99.90;;;;;;5053357;28;20204;-73
2022/02/21 10:39:06;;;;;;;2.90;1.20;;;10.20;99.90;;;;;;5055423;28;20269;-76
2022/02/21 10:41:49;;;;;;;3.53;1.40;;;10.20;99.90;;;;;;5056786;28;20224;-75
2022/02/21 10:44:18;;;;;;;2.30;1.10;;;10.20;99.90;;;;;;5053218;28;20204;-73
2022/02/21 10:47:00;;;;;;;2.50;1.30;;;10.30;99.90;;;;;;5056863;28;20216;-76
2022/02/21 10:49:27;;;;;;;1.90;1.20;;;10.30;99.90;;;;;;5057060;28;20204;-73
2022/02/21 10:51:57;;;;;;;3.43;1.40;;;10.30;99.90;;;;;;5053561;28;20217;-76
2022/02/21 10:54:29;;;;;;;2.20;1.30;;;10.30;99.90;;;;;;5054772;28;20217;-76
2022/02/21 10:56:57;;;;;;;2.40;1.20;;;10.40;99.90;;;;;;5054596;28;20201;-74
2022/02/21 10:59:28;;;;;;;1.90;1.10;;;10.40;99.90;;;;;;5060684;28;20209;-76
2022/02/21 11:01:56;;;;;;;1.60;1.30;;;10.40;99.90;;;;;;5053291;28;20220;-72
2022/02/21 11:04:24;;;;;;;2.37;1.37;;;10.40;99.90;;;;;;5046527;28;20702;-74
2022/02/21 11:06:51;;;;;;;2.53;1.47;;;10.40;99.90;;;;;;5051599;28;20204;-72
2022/02/21 11:09:20;;;;;;;5.20;1.30;;;10.40;99.90;;;;;;5062042;28;20233;-74
2022/02/21 11:11:48;;;;;;;6.73;1.57;;;10.30;99.90;;;;;;5056815;28;20210;-72
2022/02/21 11:14:19;;;;;;;2.50;1.50;;;10.20;99.90;;;;;;5054243;28;20210;-73
2022/02/21 11:16:48;;;;;;;1.83;1.30;;;10.20;99.90;;;;;;5054997;28;20289;-77
2022/02/21 11:19:16;;;;;;;2.07;1.20;;;10.10;99.90;;;;;;5065758;28;20216;-74
2022/02/21 11:21:43;;;;;;;1.67;1.27;;;10.00;99.90;;;;;;5049437;28;20225;-74
2022/02/21 11:24:13;;;;;;;1.63;1.00;;;9.90;99.90;;;;;;5055823;28;20241;-74
2022/02/21 11:26:49;;;;;;;2.70;1.50;;;9.60;99.90;;;;;;5062352;28;20198;-74
2022/02/21 11:29:25;;;;;;;2.53;1.30;;;9.30;99.90;;;;;;5055355;28;20288;-73
2022/02/21 11:31:52;;;;;;;2.00;1.00;;;9.10;99.90;;;;;;5057836;28;20612;-73
2022/02/21 11:34:19;;;;;;;1.30;0.83;;;8.90;99.90;;;;;;5042565;28;20210;-73
2022/02/21 11:36:49;;;;;;;1.90;1.03;;;8.70;99.90;;;;;;5054617;28;20210;-74
2022/02/21 11:39:22;;;;;;;2.23;1.00;;;8.60;99.90;;;;;;5047674;28;20233;-75
2022/02/21 11:42:05;;;;;;;4.10;0.83;;;8.50;99.90;;;;;;5051420;28;20233;-74
2022/02/21 11:44:46;;;;;;;1.00;0.90;;;8.30;99.90;;;;;;5041796;28;20671;-75
2022/02/21 11:47:35;;;;;;;1.53;1.20;;;8.30;99.90;;;;;;5046473;28;20206;-74
2022/02/21 11:50:03;;;;;;;1.83;1.17;;;8.20;99.90;;;;;;5053690;28;20573;-73
2022/02/21 11:52:32;;;;;;;1.50;1.00;;;8.20;99.90;;;;;;5055559;28;20665;-74
2022/02/21 11:54:59;;;;;;;1.23;0.90;;;8.20;99.90;;;;;;5059098;28;20224;-73
2022/02/21 11:57:37;;;;;;;2.47;0.93;;;8.10;99.90;;;;;;5054659;28;20658;-74
2022/02/21 12:00:38;;;;;;;1.27;1.00;;;8.10;99.90;;;;;;5048440;28;20556;-79
2022/02/21 12:03:11;;;;;;;1.83;1.00;;;8.10;99.90;;;;;;5054309;28;20225;-74
2022/02/21 12:05:38;;;;;;;1.77;1.10;;;8.10;99.90;;;;;;5053726;28;20210;-74
2022/02/21 12:08:22;;;;;;;1.70;0.80;;;8.00;99.90;;;;;;5063180;28;20237;-75
2022/02/21 12:11:15;;;;;;;2.20;0.90;;;8.00;99.90;;;;;;5053688;28;20206;-69
2022/02/21 12:14:17;;;;;;;2.13;1.07;;;7.90;99.90;;;;;;5058448;28;20202;-66
2022/02/21 12:17:06;;;;;;;1.27;0.90;;;7.80;99.90;;;;;;5052187;28;20720;-69
2022/02/21 12:19:39;;;;;;;1.50;1.10;;;7.80;99.90;;;;;;5063729;28;20289;-68
2022/02/21 12:22:09;;;;;;;1.13;0.70;;;7.80;99.90;;;;;;5054619;28;20221;-67
2022/02/21 12:24:56;;;;;;;1.43;0.83;;;7.80;99.90;;;;;;5066005;28;20205;-69
2022/02/21 12:27:23;;;;;;;1.00;0.80;;;7.80;99.90;;;;;;5056870;28;20198;-73
2022/02/21 12:29:50;;;;;;;2.03;0.93;;;7.80;99.90;;;;;;5060092;28;20209;-72
2022/02/21 12:32:27;;;;;;;1.33;0.90;;;7.80;99.90;;;;;;5057665;28;20205;-73
2022/02/21 12:35:01;;;;;;;1.67;0.90;;;7.80;99.90;;;;;;5058792;28;20274;-74
2022/02/21 12:37:36;;;;;;;1.93;1.37;;;7.90;99.90;;;;;;5069618;28;20251;-73
2022/02/21 12:40:06;;;;;;;1.33;0.90;;;7.90;99.90;;;;;;5049346;28;20253;-70
2022/02/21 12:42:33;;;;;;;1.10;0.97;;;7.90;99.90;;;;;;5061779;28;20233;-71
2022/02/21 12:45:00;;;;;;;1.07;0.80;;;7.90;99.90;;;;;;5068986;28;20233;-68
2022/02/21 12:47:28;;;;;;;2.27;0.80;;;8.00;99.90;;;;;;5055446;28;20198;-66
2022/02/21 12:49:56;;;;;;;1.73;1.10;;;8.20;99.90;;;;;;5055570;28;20611;-67
2022/02/21 12:52:23;;;;;;;1.50;0.90;;;8.80;99.90;;;;;;5047407;28;20665;-66
2022/02/21 12:54:53;;;;;;;1.57;0.90;;;9.10;99.90;;;;;;5063223;28;20206;-66
2022/02/21 12:57:21;;;;;;;1.33;0.73;;;9.20;99.90;;;;;;5051875;28;20576;-67
2022/02/21 12:59:50;;;;;;;1.23;0.97;;;9.20;99.90;;;;;;5050936;28;20234;-67
2022/02/21 13:02:18;;;;;;;2.80;1.50;;;9.10;99.90;;;;;;5052383;28;20261;-67